Time;durP1;ratioP1;P1;durP2;ratioP2;P2;SDS_P1;SDS_P2;PMS_P1;PMS_P2;Temp;Humidity;BMP_temperature;BMP_pressure;BME280_temperature;BME280_humidity;BME280_pressure;Samples;Min_cycle;Max_cycle;Signal;HPM_P1;HPM_P2
2022/03/15 00:01:39;;;;;;;;;76.33;61.00;;;;;5.16;58.94;103113.78;146600;601;46017;-71
2022/03/15 00:04:32;;;;;;;;;74.50;57.00;;;;;5.15;60.11;103118.00;146599;614;46010;-71
2022/03/15 00:07:24;;;;;;;;;75.25;58.00;;;;;5.12;59.19;103117.66;146598;655;46033;-71
2022/03/15 00:10:18;;;;;;;;;66.00;51.25;;;;;5.06;59.81;103122.13;146603;632;46010;-71
2022/03/15 00:13:10;;;;;;;;;66.50;50.25;;;;;5.00;61.09;103112.06;146598;563;46919;-71
2022/03/15 00:16:04;;;;;;;;;61.00;49.50;;;;;4.93;59.85;103113.78;146602;594;46010;-71
2022/03/15 00:18:56;;;;;;;;;55.75;45.50;;;;;4.83;60.46;103119.56;146596;569;46017;-70
2022/03/15 00:21:48;;;;;;;;;55.00;45.50;;;;;4.69;61.42;103117.09;146604;587;46010;-71
2022/03/15 00:24:41;;;;;;;;;54.75;44.75;;;;;4.53;62.26;103122.16;146600;607;46016;-71
2022/03/15 00:27:33;;;;;;;;;53.75;43.00;;;;;4.37;63.31;103117.81;146600;781;46020;-71
2022/03/15 00:30:27;;;;;;;;;56.50;45.00;;;;;4.23;63.16;103115.31;146598;581;46016;-72
2022/03/15 00:33:19;;;;;;;;;57.75;44.50;;;;;4.12;62.88;103119.25;146600;573;46010;-70
2022/03/15 00:36:12;;;;;;;;;57.00;45.00;;;;;4.03;63.44;103115.59;146599;624;46016;-71
2022/03/15 00:39:04;;;;;;;;;51.50;40.75;;;;;3.98;63.58;103114.16;146602;631;46010;-73
2022/03/15 00:41:56;;;;;;;;;53.00;42.50;;;;;3.90;65.26;103107.25;146600;591;46919;-70
2022/03/15 00:44:48;;;;;;;;;49.00;40.00;;;;;3.84;63.88;103114.22;146602;639;46010;-70
2022/03/15 00:47:40;;;;;;;;;55.75;41.50;;;;;3.75;65.01;103106.38;146599;659;46017;-71
2022/03/15 00:50:33;;;;;;;;;52.50;41.50;;;;;3.70;65.02;103102.34;146600;569;46028;-72
2022/03/15 00:53:24;;;;;;;;;42.25;35.50;;;;;3.65;63.80;103104.37;146597;585;46017;-72
2022/03/15 00:56:19;;;;;;;;;40.75;35.25;;;;;3.64;63.80;103109.31;146601;618;46010;-73
2022/03/15 00:59:11;;;;;;;;;36.75;33.75;;;;;3.64;64.61;103112.78;146600;572;46012;-73
2022/03/15 01:02:03;;;;;;;;;35.00;31.00;;;;;3.67;63.66;103113.16;146600;559;46021;-73
2022/03/15 01:04:55;;;;;;;;;29.50;26.75;;;;;3.73;63.56;103109.47;146600;630;46016;-74
2022/03/15 01:07:47;;;;;;;;;28.75;23.50;;;;;3.77;63.39;103115.16;146601;629;46020;-74
2022/03/15 01:10:41;;;;;;;;;26.00;24.00;;;;;3.74;63.59;103112.25;146598;679;46016;-74
2022/03/15 01:13:33;;;;;;;;;34.50;28.75;;;;;3.74;63.02;103114.81;146601;640;46020;-74
2022/03/15 01:16:25;;;;;;;;;29.00;24.75;;;;;3.75;63.27;103116.62;146598;581;46012;-75
2022/03/15 01:19:17;;;;;;;;;27.25;25.50;;;;;3.74;63.95;103119.00;146601;630;46020;-74
2022/03/15 01:22:09;;;;;;;;;28.25;24.25;;;;;3.66;62.88;103110.41;146601;639;46027;-75
2022/03/15 01:25:01;;;;;;;;;39.75;35.25;;;;;3.60;63.92;103105.47;146605;597;45021;-75
2022/03/15 01:27:53;;;;;;;;;47.50;38.00;;;;;3.54;64.98;103106.41;146601;576;47012;-75
2022/03/15 01:30:45;;;;;;;;;43.50;38.00;;;;;3.50;64.52;103115.41;146600;594;46011;-74
2022/03/15 01:33:38;;;;;;;;;46.75;37.00;;;;;3.46;64.29;103111.56;146598;668;46016;-74
2022/03/15 01:36:30;;;;;;;;;47.50;40.75;;;;;3.41;64.60;103109.19;146603;606;46020;-77
2022/03/15 01:39:22;;;;;;;;;131.50;113.75;;;;;3.35;64.20;103114.50;146601;579;46017;-76
2022/03/15 01:42:15;;;;;;;;;43.50;36.50;;;;;3.28;64.02;103113.63;146607;579;46020;-76
2022/03/15 01:45:10;;;;;;;;;52.00;42.25;;;;;3.27;64.22;103122.97;146599;576;46015;-76
2022/03/15 01:48:02;;;;;;;;;52.25;40.75;;;;;3.20;64.15;103116.16;146601;657;46010;-77
2022/03/15 01:50:54;;;;;;;;;41.00;35.75;;;;;3.15;63.77;103126.62;146598;565;47012;-78
2022/03/15 01:53:46;;;;;;;;;45.00;37.00;;;;;3.11;64.64;103129.53;146602;588;46021;-75
2022/03/15 01:56:42;;;;;;;;;40.75;36.00;;;;;3.06;64.25;103128.09;146601;565;46016;-78
2022/03/15 01:59:34;;;;;;;;;48.50;39.25;;;;;2.99;65.42;103122.22;146599;610;46020;-79
2022/03/15 02:02:25;;;;;;;;;49.75;38.50;;;;;2.90;65.12;103121.13;146598;643;46014;-80
2022/03/15 02:05:18;;;;;;;;;43.75;37.75;;;;;2.81;64.93;103122.59;146601;606;46020;-80
2022/03/15 02:08:21;;;;;;;;;43.25;34.25;;;;;2.74;64.62;103118.37;146599;698;46017;-80
2022/03/15 02:11:15;;;;;;;;;38.25;35.00;;;;;2.70;64.70;103116.16;146601;675;46010;-78
2022/03/15 02:14:10;;;;;;;;;37.00;33.50;;;;;2.64;65.88;103115.41;146598;632;46919;-80
2022/03/15 02:17:02;;;;;;;;;30.25;27.75;;;;;2.57;64.98;103101.69;146603;578;46021;-79
2022/03/15 02:19:55;;;;;;;;;37.00;33.50;;;;;2.58;64.31;103112.09;146600;755;46016;-80
2022/03/15 02:22:47;;;;;;;;;63.75;50.75;;;;;2.60;65.22;103094.37;146602;567;46011;-80
2022/03/15 02:25:39;;;;;;;;;76.67;60.33;;;;;2.55;64.41;103093.81;146600;563;46012;-78
2022/03/15 02:28:32;;;;;;;;;37.25;33.50;;;;;2.57;64.32;103097.47;146604;749;46010;-78
2022/03/15 02:31:24;;;;;;;;;34.50;32.25;;;;;2.64;64.49;103104.25;146601;620;46013;-73
2022/03/15 02:34:16;;;;;;;;;35.25;28.75;;;;;2.65;64.46;103098.38;146604;583;45047;-76
2022/03/15 02:37:08;;;;;;;;;32.50;30.50;;;;;2.63;64.74;103090.53;146598;643;46919;-76
2022/03/15 02:40:00;;;;;;;;;49.75;40.75;;;;;2.57;65.07;103089.78;146602;572;46010;-81
2022/03/15 02:42:52;;;;;;;;;33.75;30.00;;;;;2.49;65.71;103094.00;146600;588;46919;-81
2022/03/15 02:45:44;;;;;;;;;47.00;37.25;;;;;2.44;65.17;103092.50;146606;576;45021;-81
2022/03/15 02:48:36;;;;;;;;;34.50;29.25;;;;;2.42;65.38;103090.50;146601;627;46024;-81
2022/03/15 02:51:29;;;;;;;;;32.25;30.00;;;;;2.42;65.75;103085.38;146604;571;46020;-81
2022/03/15 02:54:21;;;;;;;;;41.50;33.00;;;;;2.42;65.59;103081.16;146598;625;46012;-76
2022/03/15 02:57:13;;;;;;;;;28.75;25.25;;;;;2.40;65.79;103074.00;146598;581;47010;-75
2022/03/15 03:00:05;;;;;;;;;30.00;27.25;;;;;2.40;65.50;103066.34;146599;564;46016;-76
2022/03/15 03:02:59;;;;;;;;;51.00;41.50;;;;;2.43;65.87;103072.78;146602;584;46020;-77
2022/03/15 03:05:51;;;;;;;;;45.00;38.25;;;;;2.48;64.42;103075.88;146599;591;46031;-74
2022/03/15 03:08:43;;;;;;;;;31.50;29.75;;;;;2.48;65.35;103076.78;146603;797;46010;-74
2022/03/15 03:11:35;;;;;;;;;22.75;21.75;;;;;2.43;65.69;103083.00;146599;741;46014;-82
2022/03/15 03:14:29;;;;;;;;;36.50;27.25;;;;;2.39;65.45;103080.78;146601;606;46011;-81
2022/03/15 03:17:24;;;;;;;;;28.25;24.75;;;;;2.39;65.46;103093.59;146599;575;46016;-81
2022/03/15 03:20:21;;;;;;;;;29.00;24.75;;;;;2.39;66.91;103092.69;146601;584;46020;-80
2022/03/15 03:23:15;;;;;;;;;36.50;28.75;;;;;2.37;65.99;103101.81;146599;636;46017;-73
2022/03/15 03:26:08;;;;;;;;;34.25;24.75;;;;;2.31;67.29;103108.03;146598;672;46020;-74
2022/03/15 03:29:00;;;;;;;;;29.75;25.25;;;;;2.29;67.09;103099.25;146598;592;46024;-72
2022/03/15 03:31:52;;;;;;;;;22.00;19.00;;;;;2.28;67.43;103099.06;146602;634;46012;-72
2022/03/15 03:34:44;;;;;;;;;28.75;25.75;;;;;2.27;67.73;103094.66;146599;578;46012;-75
2022/03/15 03:37:37;;;;;;;;;22.00;20.25;;;;;2.23;68.01;103090.81;146602;578;47010;-75
2022/03/15 03:40:28;;;;;;;;;27.75;19.50;;;;;2.20;67.54;103079.28;146624;641;45016;-75
2022/03/15 03:43:21;;;;;;;;;21.25;18.75;;;;;2.18;67.26;103088.41;146627;602;46010;-77
2022/03/15 03:46:14;;;;;;;;;24.00;22.00;;;;;2.19;67.42;103080.94;146627;590;45919;-78
2022/03/15 03:49:07;;;;;;;;;21.75;17.00;;;;;2.23;66.71;103089.91;146628;569;46010;-76
2022/03/15 03:51:58;;;;;;;;;19.75;17.50;;;;;2.26;66.84;103078.38;146627;621;45016;-86
2022/03/15 03:54:51;;;;;;;;;20.25;19.25;;;;;2.34;66.75;103088.63;146624;616;45024;-74
2022/03/15 03:57:43;;;;;;;;;21.25;18.00;;;;;2.38;66.37;103078.06;146625;580;45016;-83
2022/03/15 04:00:35;;;;;;;;;20.00;19.50;;;;;2.41;66.62;103083.56;146626;574;45021;-82
2022/03/15 04:03:28;;;;;;;;;23.00;18.75;;;;;2.43;66.62;103083.00;146627;653;46014;-82
2022/03/15 04:06:20;;;;;;;;;27.75;19.50;;;;;2.45;66.87;103083.19;146629;596;45013;-83
2022/03/15 04:09:13;;;;;;;;;24.25;20.50;;;;;2.46;66.76;103088.50;146627;595;45016;-89
2022/03/15 04:14:48;;;;;;;;;20.00;16.50;;;;;2.46;65.97;103097.81;146623;603;46012;-90
2022/03/15 04:17:41;;;;;;;;;24.00;18.00;;;;;2.51;65.24;103089.97;146626;628;45012;-81
2022/03/15 04:20:35;;;;;;;;;21.00;18.50;;;;;2.59;65.48;103084.88;146624;587;45920;-81
2022/03/15 04:23:27;;;;;;;;;22.75;22.75;;;;;2.63;66.72;103080.28;146624;664;45020;-78
2022/03/15 04:26:19;;;;;;;;;28.75;26.50;;;;;2.67;66.18;103092.72;146625;614;45016;-76
2022/03/15 04:29:11;;;;;;;;;28.75;24.50;;;;;2.69;65.03;103088.72;146624;588;45034;-75
2022/03/15 04:32:03;;;;;;;;;23.75;22.25;;;;;2.73;64.98;103092.56;146625;721;45021;-75
2022/03/15 04:34:56;;;;;;;;;28.50;22.25;;;;;2.73;65.21;103096.03;146630;630;45010;-73
2022/03/15 04:37:49;;;;;;;;;30.50;28.50;;;;;2.69;64.72;103106.66;146626;613;45016;-78
2022/03/15 04:40:41;;;;;;;;;40.00;35.00;;;;;2.72;64.68;103106.09;146602;566;46915;-77
2022/03/15 04:43:32;;;;;;;;;32.00;27.25;;;;;2.74;64.67;103108.13;146602;641;46016;-75
2022/03/15 04:46:25;;;;;;;;;31.75;28.50;;;;;2.70;64.56;103112.69;146607;569;46012;-75
2022/03/15 04:49:17;;;;;;;;;38.50;32.75;;;;;2.66;64.47;103113.97;146604;586;46014;-75
2022/03/15 04:52:09;;;;;;;;;41.75;34.25;;;;;2.62;64.87;103124.56;146605;583;46010;-74
2022/03/15 04:55:01;;;;;;;;;41.75;36.00;;;;;2.57;64.83;103117.97;146604;746;46016;-74
2022/03/15 04:57:53;;;;;;;;;49.25;38.75;;;;;2.51;65.61;103120.69;146603;596;46010;-74
2022/03/15 05:00:45;;;;;;;;;47.00;36.75;;;;;2.50;64.78;103128.19;146602;649;46014;-76
2022/03/15 05:03:37;;;;;;;;;48.25;38.75;;;;;2.49;65.05;103134.97;146607;594;45042;-76
2022/03/15 05:06:29;;;;;;;;;46.50;38.50;;;;;2.46;66.23;103133.66;146603;597;46017;-75
2022/03/15 05:09:21;;;;;;;;;49.25;40.75;;;;;2.45;65.72;103129.28;146605;590;46021;-75
2022/03/15 05:12:14;;;;;;;;;57.50;43.00;;;;;2.40;65.49;103118.50;146605;570;45016;-75
2022/03/15 05:15:06;;;;;;;;;48.75;39.25;;;;;2.64;66.02;103124.75;146606;598;46011;-76
2022/03/15 05:17:58;;;;;;;;;45.75;37.75;;;;;3.35;65.51;103126.41;146604;599;46919;-80
2022/03/15 05:20:50;;;;;;;;;56.75;41.00;;;;;4.24;63.91;103124.87;146602;615;46013;-80
2022/03/15 05:23:42;;;;;;;;;37.50;34.00;;;;;5.17;61.52;103128.44;146603;692;46014;-78
2022/03/15 05:26:34;;;;;;;;;42.75;36.75;;;;;5.95;59.71;103127.69;146605;618;46020;-79
2022/03/15 05:29:26;;;;;;;;;36.25;31.75;;;;;6.72;58.35;103128.13;146604;631;46017;-77
2022/03/15 05:32:19;;;;;;;;;35.25;29.00;;;;;7.57;56.57;103135.16;146608;613;47010;-71
2022/03/15 05:35:11;;;;;;;;;33.25;29.25;;;;;8.41;54.97;103140.12;146602;629;47012;-71
2022/03/15 05:38:04;;;;;;;;;38.75;33.00;;;;;9.11;52.80;103147.00;146606;575;46021;-71
2022/03/15 05:40:56;;;;;;;;;49.75;40.50;;;;;9.67;51.57;103148.84;146605;590;46014;-73
2022/03/15 05:43:49;;;;;;;;;50.00;38.50;;;;;10.17;50.32;103155.22;146607;564;46010;-73
2022/03/15 05:46:41;;;;;;;;;53.00;43.25;;;;;10.58;47.77;103154.59;146603;581;46016;-73
2022/03/15 05:49:34;;;;;;;;;58.00;45.50;;;;;10.63;47.79;103159.41;146606;706;46010;-72
2022/03/15 05:52:26;;;;;;;;;51.75;40.50;;;;;10.51;46.50;103163.50;146604;572;46034;-72
2022/03/15 05:55:20;;;;;;;;;45.00;35.25;;;;;10.13;47.37;103162.59;146608;611;46012;-73
2022/03/15 05:58:14;;;;;;;;;54.75;40.75;;;;;9.68;48.18;103167.91;146604;590;45017;-74
2022/03/15 06:01:06;;;;;;;;;66.75;52.00;;;;;9.31;48.86;103166.09;146605;618;46020;-73
2022/03/15 06:03:59;;;;;;;;;50.25;38.75;;;;;8.97;49.89;103165.44;146603;651;46919;-73
2022/03/15 06:06:51;;;;;;;;;45.25;37.00;;;;;8.62;50.93;103162.94;146604;590;46021;-74
2022/03/15 06:09:43;;;;;;;;;51.50;40.00;;;;;8.44;52.20;103168.87;146602;579;46016;-72
2022/03/15 06:12:35;;;;;;;;;43.75;36.50;;;;;8.44;52.17;103179.22;146606;611;46020;-74
2022/03/15 06:15:28;;;;;;;;;45.25;37.00;;;;;8.48;52.29;103176.19;146603;591;46016;-73
2022/03/15 06:18:20;;;;;;;;;43.25;35.75;;;;;8.54;51.92;103166.47;146603;565;46020;-81
2022/03/15 06:21:12;;;;;;;;;43.50;36.75;;;;;8.64;51.36;103165.69;146603;564;46014;-81
2022/03/15 06:24:05;;;;;;;;;51.00;38.25;;;;;8.67;51.35;103145.28;146606;573;46024;-81
2022/03/15 06:26:58;;;;;;;;;51.25;42.50;;;;;8.95;50.99;103165.31;146604;610;46920;-80
2022/03/15 06:29:51;;;;;;;;;61.25;47.00;;;;;9.13;51.03;103167.88;146608;616;46010;-74
2022/03/15 06:32:43;;;;;;;;;49.25;40.50;;;;;9.32;50.38;103165.34;146602;584;46016;-73
2022/03/15 06:35:35;;;;;;;;;46.75;38.50;;;;;9.45;50.15;103168.31;146604;590;46020;-73
2022/03/15 06:38:27;;;;;;;;;53.75;43.75;;;;;9.56;50.09;103167.66;146604;606;46016;-73
2022/03/15 06:41:20;;;;;;;;;50.75;41.00;;;;;9.71;50.18;103160.41;146605;603;46020;-75
2022/03/15 06:44:15;;;;;;;;;57.00;43.75;;;;;9.78;50.09;103146.34;146602;572;46016;-76
2022/03/15 06:47:07;;;;;;;;;59.50;47.00;;;;;10.04;50.20;103167.81;146603;680;46020;-73
2022/03/15 06:50:00;;;;;;;;;66.00;50.75;;;;;10.15;49.97;103164.50;146600;587;47013;-77
2022/03/15 06:52:52;;;;;;;;;66.75;51.50;;;;;10.28;49.66;103165.69;146606;708;46021;-80
2022/03/15 06:55:44;;;;;;;;;64.00;50.00;;;;;10.44;49.42;103153.34;146602;617;46014;-78
2022/03/15 06:58:36;;;;;;;;;64.75;50.75;;;;;10.66;49.04;103156.19;146605;583;46021;-78
2022/03/15 07:01:28;;;;;;;;;62.50;48.75;;;;;10.81;49.05;103156.62;146603;570;46016;-72
2022/03/15 07:04:20;;;;;;;;;64.50;51.00;;;;;10.96;49.26;103152.81;146603;617;46020;-72
2022/03/15 07:07:13;;;;;;;;;61.00;48.25;;;;;11.15;48.53;103159.63;146602;564;46016;-74
2022/03/15 07:10:09;;;;;;;;;62.50;49.75;;;;;11.32;48.19;103164.63;146606;597;46020;-75
2022/03/15 07:13:01;;;;;;;;;66.25;52.00;;;;;11.45;47.97;103159.69;146603;617;46016;-74
2022/03/15 07:15:53;;;;;;;;;66.25;50.25;;;;;11.60;47.66;103164.41;146602;653;46020;-75
2022/03/15 07:18:45;;;;;;;;;60.50;48.50;;;;;11.71;46.78;103155.81;146604;563;46012;-76
2022/03/15 07:21:37;;;;;;;;;62.00;49.25;;;;;11.73;47.08;103152.56;146606;598;46010;-76
2022/03/15 07:24:29;;;;;;;;;61.50;48.75;;;;;11.80;47.40;103160.09;146602;589;46919;-76
2022/03/15 07:27:22;;;;;;;;;52.75;42.25;;;;;11.89;46.67;103154.81;146606;570;46010;-78
2022/03/15 07:30:15;;;;;;;;;53.25;42.00;;;;;11.99;46.57;103157.44;146604;602;46016;-80
2022/03/15 07:33:07;;;;;;;;;52.25;41.00;;;;;12.16;46.29;103163.13;146605;615;47012;-81
2022/03/15 07:35:59;;;;;;;;;53.50;44.00;;;;;12.34;46.30;103167.28;146602;611;46016;-80
2022/03/15 07:38:52;;;;;;;;;54.25;43.25;;;;;12.58;46.26;103170.97;146598;569;48023;-74
2022/03/15 07:41:46;;;;;;;;;46.50;37.75;;;;;12.74;44.73;103162.75;146603;784;47012;-77
2022/03/15 07:44:39;;;;;;;;;44.25;37.50;;;;;12.85;44.73;103171.41;146601;572;47021;-73
2022/03/15 07:47:31;;;;;;;;;41.50;34.75;;;;;13.00;43.70;103174.34;146603;646;46016;-81
2022/03/15 07:50:25;;;;;;;;;38.50;32.50;;;;;13.08;43.18;103166.38;146606;569;46010;-75
2022/03/15 07:53:17;;;;;;;;;45.50;37.50;;;;;13.09;44.49;103164.66;146603;569;46016;-70
2022/03/15 07:56:10;;;;;;;;;46.00;37.50;;;;;13.18;44.44;103158.50;146607;569;46010;-76
2022/03/15 07:59:02;;;;;;;;;35.75;29.25;;;;;13.29;42.71;103155.84;146602;602;46017;-76
2022/03/15 08:01:55;;;;;;;;;31.00;29.50;;;;;13.31;43.10;103159.50;146605;619;46020;-76
2022/03/15 08:04:46;;;;;;;;;29.75;27.75;;;;;13.39;43.86;103158.37;146604;583;46013;-76
2022/03/15 08:07:39;;;;;;;;;32.75;30.75;;;;;13.55;43.62;103155.28;146607;669;46010;-76
2022/03/15 08:10:31;;;;;;;;;26.00;25.25;;;;;13.76;42.61;103162.16;146604;593;46016;-76
2022/03/15 08:13:23;;;;;;;;;32.25;29.75;;;;;13.81;42.94;103165.13;146602;564;46034;-76
2022/03/15 08:16:16;;;;;;;;;33.25;29.00;;;;;13.87;42.36;103168.22;146603;569;46034;-75
2022/03/15 08:19:08;;;;;;;;;35.25;31.50;;;;;13.97;41.70;103162.00;146605;653;46024;-76
2022/03/15 08:22:02;;;;;;;;;30.25;28.75;;;;;14.06;42.59;103155.78;146603;634;47014;-76
2022/03/15 08:24:54;;;;;;;;;30.00;27.50;;;;;14.21;38.98;103152.53;146607;585;46010;-75
2022/03/15 08:27:46;;;;;;;;;33.00;29.00;;;;;14.21;35.75;103145.59;146606;626;45033;-75
2022/03/15 08:30:39;;;;;;;;;29.50;27.75;;;;;14.13;38.79;103143.19;146605;654;46010;-77
2022/03/15 08:33:31;;;;;;;;;29.75;26.00;;;;;14.03;40.00;103149.44;146603;640;46016;-76
2022/03/15 08:36:23;;;;;;;;;30.50;28.25;;;;;13.95;40.61;103148.81;146605;616;46028;-75
2022/03/15 08:39:15;;;;;;;;;30.25;24.50;;;;;13.86;41.00;103142.91;146603;577;46014;-75
2022/03/15 08:42:08;;;;;;;;;30.50;27.00;;;;;13.74;43.19;103149.81;146604;651;46011;-76
2022/03/15 08:45:00;;;;;;;;;23.25;23.00;;;;;13.68;44.00;103150.25;146602;610;46016;-76
2022/03/15 08:47:53;;;;;;;;;27.25;26.00;;;;;13.74;42.99;103147.22;146605;590;46020;-76
2022/03/15 08:50:44;;;;;;;;;29.75;25.75;;;;;13.76;42.70;103146.50;146603;602;46016;-76
2022/03/15 08:53:37;;;;;;;;;32.00;28.50;;;;;13.78;43.52;103144.03;146603;603;46020;-77
2022/03/15 08:56:29;;;;;;;;;28.00;24.25;;;;;13.92;42.23;103142.47;146605;587;46012;-74
2022/03/15 08:59:21;;;;;;;;;32.50;26.50;;;;;14.06;41.52;103137.50;146606;553;45021;-72
2022/03/15 09:02:14;;;;;;;;;26.25;25.00;;;;;14.16;42.60;103140.81;146601;597;46016;-76
2022/03/15 09:05:07;;;;;;;;;25.25;22.75;;;;;14.27;42.31;103150.38;146604;651;46010;-73
2022/03/15 09:07:59;;;;;;;;;26.25;22.75;;;;;14.33;39.83;103141.28;146603;607;46012;-74
2022/03/15 09:10:51;;;;;;;;;26.25;25.25;;;;;14.40;40.91;103134.81;146605;565;46010;-72
2022/03/15 09:13:43;;;;;;;;;28.25;24.25;;;;;14.53;40.36;103127.13;146602;605;46016;-73
2022/03/15 09:16:35;;;;;;;;;28.50;23.00;;;;;14.61;37.49;103130.31;146607;582;46010;-73
2022/03/15 09:19:27;;;;;;;;;26.75;22.75;;;;;14.68;39.35;103127.34;146605;650;46014;-74
2022/03/15 09:22:20;;;;;;;;;31.50;27.75;;;;;14.84;41.50;103121.53;146607;569;46010;-73
2022/03/15 09:25:13;;;;;;;;;28.00;24.75;;;;;15.12;40.79;103123.50;146603;675;46015;-73
2022/03/15 09:28:05;;;;;;;;;22.25;20.25;;;;;15.22;39.53;103120.72;146602;601;46021;-73
2022/03/15 09:30:58;;;;;;;;;25.25;21.50;;;;;15.26;39.26;103120.12;146603;650;47012;-73
2022/03/15 09:33:50;;;;;;;;;30.25;28.00;;;;;15.11;40.84;103080.78;146604;576;46021;-73
2022/03/15 09:36:44;;;;;;;;;30.25;25.75;;;;;15.36;41.22;103119.09;146603;566;46016;-73
2022/03/15 09:39:36;;;;;;;;;20.00;17.25;;;;;15.40;39.51;103116.78;146609;612;46029;-73
2022/03/15 09:42:29;;;;;;;;;21.25;21.00;;;;;15.48;39.70;103112.09;146608;573;46016;-73
2022/03/15 09:45:26;;;;;;;;;24.00;21.25;;;;;15.60;40.19;103107.69;146611;587;46020;-73
2022/03/15 09:48:23;;;;;;;;;20.00;16.50;;;;;15.68;39.81;103106.56;146611;601;46012;-71
2022/03/15 09:51:19;;;;;;;;;24.50;22.50;;;;;15.68;39.11;103105.66;146611;563;46020;-73
2022/03/15 09:54:12;;;;;;;;;21.75;18.50;;;;;15.64;38.97;103099.28;146611;641;46013;-73
2022/03/15 09:57:07;;;;;;;;;20.75;19.25;;;;;15.61;38.89;103103.41;146615;596;46010;-73
2022/03/15 10:00:03;;;;;;;;;19.50;18.75;;;;;15.56;40.38;103087.37;146612;636;46012;-71
2022/03/15 10:02:55;;;;;;;;;21.25;19.25;;;;;15.47;38.43;103087.66;146612;591;47011;-71
2022/03/15 10:05:51;;;;;;;;;22.50;19.00;;;;;15.39;40.08;103096.69;146608;606;46919;-71
2022/03/15 10:08:44;;;;;;;;;23.25;21.75;;;;;15.39;39.32;103080.06;146614;756;46020;-71
2022/03/15 10:11:37;;;;;;;;;23.00;21.25;;;;;15.39;38.78;103082.69;146610;571;46016;-72
2022/03/15 10:14:29;;;;;;;;;22.50;21.00;;;;;15.47;40.13;103074.56;146611;565;46020;-73
2022/03/15 10:17:21;;;;;;;;;18.75;18.25;;;;;15.68;40.34;103066.44;146612;619;45919;-73
2022/03/15 10:20:18;;;;;;;;;27.50;22.50;;;;;15.90;40.58;103055.69;146608;614;47010;-73
2022/03/15 10:23:10;;;;;;;;;26.50;22.00;;;;;16.13;39.61;103055.47;146611;563;46016;-73
2022/03/15 10:26:04;;;;;;;;;22.75;20.00;;;;;16.29;38.48;103046.03;146615;598;46010;-73
2022/03/15 10:28:58;;;;;;;;;20.75;17.50;;;;;16.27;39.04;103011.00;146609;602;46919;-73
2022/03/15 10:31:54;;;;;;;;;20.75;18.75;;;;;16.51;37.24;103032.59;146613;615;46020;-71
2022/03/15 10:34:47;;;;;;;;;17.50;16.50;;;;;16.37;39.20;103043.09;146608;576;46012;-71
2022/03/15 10:37:39;;;;;;;;;23.75;22.00;;;;;16.09;38.96;103035.16;146610;612;46020;-72
2022/03/15 10:40:55;;;;;;;;;25.50;22.50;;;;;15.91;41.44;103034.84;146628;590;45920;-72
2022/03/15 10:43:47;;;;;;;;;21.25;19.75;;;;;15.86;40.89;103031.03;146630;606;46012;-72
2022/03/15 10:46:39;;;;;;;;;27.00;23.50;;;;;15.92;41.74;103028.84;146626;597;45016;-72
2022/03/15 10:49:32;;;;;;;;;9.75;8.00;;;;;15.94;38.78;103034.16;146629;626;46020;-71
2022/03/15 10:52:36;;;;;;;;;24.75;20.75;;;;;15.84;40.28;103014.31;146628;573;45016;-71
2022/03/15 10:55:32;;;;;;;;;19.50;18.25;;;;;15.88;40.29;103011.09;146631;591;45011;-72
2022/03/15 10:58:27;;;;;;;;;24.25;22.00;;;;;16.01;40.66;103005.00;146624;759;45016;-72
2022/03/15 11:01:28;;;;;;;;;20.50;19.50;;;;;16.15;40.37;102992.78;146629;581;45020;-72
2022/03/15 11:04:20;;;;;;;;;19.00;18.50;;;;;16.28;39.92;102992.75;146628;603;45030;-72
2022/03/15 11:07:13;;;;;;;;;19.25;15.50;;;;;16.06;38.58;102955.56;146630;585;45012;-71
2022/03/15 11:10:18;;;;;;;;;16.00;16.00;;;;;16.05;40.49;102993.91;146626;618;45016;-71
2022/03/15 11:13:16;;;;;;;;;18.25;17.75;;;;;15.90;41.41;102979.81;146630;574;45020;-74
2022/03/15 11:16:11;;;;;;;;;20.25;18.00;;;;;15.86;41.97;102976.09;146628;599;45919;-74
2022/03/15 11:19:07;;;;;;;;;21.00;18.00;;;;;15.95;40.61;102965.34;146627;564;45021;-71
2022/03/15 11:22:01;;;;;;;;;19.75;19.50;;;;;16.02;39.99;102969.25;146623;635;45016;-74
2022/03/15 11:25:25;;;;;;;;;21.50;19.00;;;;;16.03;41.16;102952.72;146628;628;45031;-71
2022/03/15 11:28:23;;;;;;;;;16.75;16.50;;;;;16.04;40.88;102949.31;146627;620;46016;-71
2022/03/15 11:31:16;;;;;;;;;18.75;17.50;;;;;16.00;38.07;102956.06;146627;581;45021;-78
2022/03/15 11:34:10;;;;;;;;;18.75;17.75;;;;;16.02;38.93;102936.13;146627;698;46016;-73
2022/03/15 11:37:04;;;;;;;;;21.25;19.25;;;;;16.04;39.90;102937.12;146625;586;45020;-73
2022/03/15 11:39:58;;;;;;;;;22.25;20.25;;;;;15.85;38.27;102894.87;146604;648;46016;-74
2022/03/15 11:42:57;;;;;;;;;22.75;20.50;;;;;16.07;40.54;102925.94;146604;583;46020;-74
2022/03/15 11:45:59;;;;;;;;;20.50;18.25;;;;;16.05;40.26;102920.63;146603;638;46017;-72
2022/03/15 11:49:25;;;;;;;;;21.25;21.25;;;;;16.10;40.70;102905.19;146599;614;47010;-74
2022/03/15 11:53:06;;;;;;;;;25.25;22.00;;;;;16.22;41.05;102894.59;146605;613;46017;-76
2022/03/15 11:56:18;;;;;;;;;30.00;23.75;;;;;16.20;38.25;102889.28;146599;569;47010;-77
2022/03/15 11:59:10;;;;;;;;;21.50;20.25;;;;;16.06;39.00;102884.88;146602;589;46018;-75
2022/03/15 12:02:06;;;;;;;;;25.50;23.75;;;;;16.04;38.75;102882.16;146605;619;46011;-75
2022/03/15 12:05:00;;;;;;;;;21.50;20.75;;;;;16.05;39.88;102878.75;146603;641;46012;-76
2022/03/15 12:08:16;;;;;;;;;23.75;21.00;;;;;16.14;39.43;102881.97;146606;580;46010;-76
2022/03/15 12:11:09;;;;;;;;;21.50;20.50;;;;;16.19;38.70;102873.47;146602;592;46016;-72
2022/03/15 12:14:19;;;;;;;;;21.25;18.00;;;;;16.22;36.87;102858.88;146607;639;46020;-72
2022/03/15 12:17:13;;;;;;;;;29.00;25.00;;;;;16.19;39.08;102852.53;146603;608;46035;-75
2022/03/15 12:20:15;;;;;;;;;21.75;19.50;;;;;16.27;39.64;102852.22;146606;628;46010;-77
2022/03/15 12:23:07;;;;;;;;;23.00;21.50;;;;;16.28;38.17;102813.84;146600;601;46017;-82
2022/03/15 12:26:01;;;;;;;;;23.00;21.00;;;;;16.50;37.83;102837.91;146607;598;46020;-76
2022/03/15 12:29:14;;;;;;;;;27.50;25.00;;;;;16.47;39.07;102844.66;146605;607;46012;-76
2022/03/15 12:32:20;;;;;;;;;24.75;21.25;;;;;16.43;38.85;102837.44;146604;652;46021;-76
2022/03/15 12:35:13;;;;;;;;;22.00;22.00;;;;;16.38;37.76;102827.56;146601;592;46016;-77
2022/03/15 12:38:13;;;;;;;;;20.50;20.50;;;;;16.38;38.10;102822.34;146602;634;46020;-75
2022/03/15 12:41:05;;;;;;;;;20.50;18.75;;;;;16.35;35.56;102827.41;146603;575;46012;-75
2022/03/15 12:43:57;;;;;;;;;24.00;21.00;;;;;16.16;35.61;102800.91;146611;769;45020;-75
2022/03/15 12:46:50;;;;;;;;;22.50;20.25;;;;;15.94;36.33;102801.28;146600;609;46017;-75
2022/03/15 12:49:42;;;;;;;;;23.00;20.75;;;;;15.69;37.09;102804.97;146606;589;47010;-74
2022/03/15 12:52:42;;;;;;;;;28.75;25.50;;;;;15.71;39.30;102802.47;146603;700;47013;-75
2022/03/15 12:55:41;;;;;;;;;25.75;21.00;;;;;15.66;39.12;102798.59;146604;569;46020;-75
2022/03/15 12:58:34;;;;;;;;;24.00;23.25;;;;;15.63;37.76;102783.63;146603;592;46016;-75
2022/03/15 13:01:26;;;;;;;;;24.00;20.00;;;;;15.69;37.27;102785.75;146606;641;46010;-74
2022/03/15 13:04:19;;;;;;;;;25.00;23.50;;;;;15.75;38.24;102782.63;146604;595;46919;-76
2022/03/15 13:07:11;;;;;;;;;25.75;23.50;;;;;15.67;37.64;102783.06;146603;582;46021;-76
2022/03/15 13:10:04;;;;;;;;;23.25;21.25;;;;;15.60;36.75;102782.53;146603;565;46035;-75
2022/03/15 13:12:56;;;;;;;;;26.75;22.50;;;;;15.47;39.09;102781.75;146606;713;45039;-75
2022/03/15 13:16:09;;;;;;;;;21.25;20.00;;;;;15.38;38.39;102773.31;146601;615;46017;-75
2022/03/15 13:19:01;;;;;;;;;24.75;24.25;;;;;15.46;39.27;102768.59;146607;576;45020;-75